Time;durP1;ratioP1;P1;durP2;ratioP2;P2;SDS_P1;SDS_P2;PMS_P1;PMS_P2;Temp;Humidity;BMP_temperature;BMP_pressure;BME280_temperature;BME280_humidity;BME280_pressure;Samples;Min_cycle;Max_cycle;Signal;HPM_P1;HPM_P2
2021/05/15 00:01:58;;;;;;;;;;;8.80;93.60;;;;;;5072283;28;20309;-69
2021/05/15 00:04:23;;;;;;;;;;;8.70;93.70;;;;;;5072794;28;19919;-69
2021/05/15 00:06:49;;;;;;;;;;;8.80;93.50;;;;;;5073914;28;19992;-69
2021/05/15 00:09:15;;;;;;;;;;;8.80;93.40;;;;;;5074642;28;19916;-69
2021/05/15 00:11:40;;;;;;;;;;;8.70;93.00;;;;;;5071501;28;19920;-69
2021/05/15 00:14:06;;;;;;;;;;;8.70;93.50;;;;;;5076043;28;19943;-69
2021/05/15 00:16:31;;;;;;;;;;;8.60;93.80;;;;;;5094402;28;19931;-69
2021/05/15 00:18:57;;;;;;;;;;;8.60;93.80;;;;;;5075617;28;20312;-69
2021/05/15 00:21:22;;;;;;;;;;;8.70;93.70;;;;;;5093997;28;20190;-69
2021/05/15 00:23:48;;;;;;;;;;;8.70;93.20;;;;;;5093535;28;19919;-69
2021/05/15 00:26:14;;;;;;;;;;;8.70;93.60;;;;;;5098080;28;19908;-69
2021/05/15 00:28:42;;;;;;;;;;;8.70;93.40;;;;;;5098521;28;19920;-69
2021/05/15 00:31:08;;;;;;;;;;;8.60;93.70;;;;;;5098099;28;20378;-69
2021/05/15 00:33:34;;;;;;;;;;;8.60;93.40;;;;;;5096046;28;19956;-69
2021/05/15 00:35:59;;;;;;;;;;;8.60;93.00;;;;;;5098201;28;19934;-69
2021/05/15 00:38:25;;;;;;;;;;;8.70;92.80;;;;;;5098034;28;19920;-69
2021/05/15 00:40:53;;;;;;;;;;;8.70;92.80;;;;;;5097795;28;19916;-70
2021/05/15 00:43:22;;;;;;;;;;;8.70;92.70;;;;;;5097280;28;19951;-70
2021/05/15 00:45:48;;;;;;;;;;;8.60;93.00;;;;;;5097592;28;20040;-69
2021/05/15 00:48:14;;;;;;;;;;;8.50;93.80;;;;;;5094128;28;19916;-69
2021/05/15 00:50:40;;;;;;;;;;;8.40;93.70;;;;;;5094326;28;19931;-68
2021/05/15 00:53:06;;;;;;;;;;;8.20;94.10;;;;;;5093630;28;20236;-69
2021/05/15 00:55:33;;;;;;;;;;;8.30;93.70;;;;;;5075709;28;19923;-69
2021/05/15 00:58:01;;;;;;;;;;;8.40;93.30;;;;;;5093808;28;19927;-68
2021/05/15 01:00:27;;;;;;;;;;;8.20;94.20;;;;;;5093656;28;19919;-70
2021/05/15 01:02:53;;;;;;;;;;;8.30;93.40;;;;;;5091436;28;19912;-68
2021/05/15 01:05:18;;;;;;;;;;;8.20;94.10;;;;;;5094930;28;19966;-69
2021/05/15 01:07:47;;;;;;;;;;;7.90;95.20;;;;;;5096022;28;19981;-69
2021/05/15 01:10:14;;;;;;;;;;;7.70;95.70;;;;;;5095126;28;20257;-69
2021/05/15 01:12:47;;;;;;;;;;;7.70;95.40;;;;;;5092700;28;19920;-70
2021/05/15 01:15:14;;;;;;;;;;;7.70;95.30;;;;;;5081781;28;19920;-69
2021/05/15 01:17:46;;;;;;;;;;;7.60;95.80;;;;;;5072842;28;20414;-69
2021/05/15 01:20:13;;;;;;;;;;;7.80;95.40;;;;;;5072736;28;19927;-69
2021/05/15 01:22:38;;;;;;;;;;;8.00;94.70;;;;;;5074943;28;20344;-69
2021/05/15 01:25:04;;;;;;;;;;;8.10;94.50;;;;;;5069515;28;19999;-69
2021/05/15 01:27:29;;;;;;;;;;;8.10;94.50;;;;;;5072148;28;19974;-70
2021/05/15 01:29:55;;;;;;;;;;;7.90;94.80;;;;;;5071595;28;20317;-70
2021/05/15 01:32:20;;;;;;;;;;;7.70;95.30;;;;;;5053533;28;19920;-69
2021/05/15 01:34:46;;;;;;;;;;;7.50;95.90;;;;;;5072833;28;20044;-69
2021/05/15 01:37:11;;;;;;;;;;;7.60;95.90;;;;;;5071624;28;19912;-69
2021/05/15 01:39:37;;;;;;;;;;;7.50;95.80;;;;;;5072207;28;20290;-69
2021/05/15 01:42:03;;;;;;;;;;;7.70;95.50;;;;;;5071861;28;20367;-69
2021/05/15 01:44:30;;;;;;;;;;;7.60;96.10;;;;;;5071387;28;19920;-69
2021/05/15 01:46:55;;;;;;;;;;;7.50;95.70;;;;;;5072824;28;19921;-69
2021/05/15 01:49:21;;;;;;;;;;;7.40;96.20;;;;;;5053327;28;19924;-69
2021/05/15 01:51:46;;;;;;;;;;;7.40;96.20;;;;;;5072371;28;19912;-69
2021/05/15 01:54:12;;;;;;;;;;;7.60;95.80;;;;;;5054748;28;19912;-70
2021/05/15 01:56:38;;;;;;;;;;;7.50;95.70;;;;;;5072336;28;19920;-69
2021/05/15 01:59:04;;;;;;;;;;;7.40;96.50;;;;;;5072014;28;20009;-69
2021/05/15 02:01:29;;;;;;;;;;;7.50;95.90;;;;;;5072343;28;19913;-69
2021/05/15 02:03:58;;;;;;;;;;;7.30;96.20;;;;;;5071171;28;20256;-69
2021/05/15 02:06:23;;;;;;;;;;;7.30;96.10;;;;;;5072359;28;20283;-69
2021/05/15 02:08:50;;;;;;;;;;;7.30;96.20;;;;;;5056270;28;20054;-69
2021/05/15 02:11:16;;;;;;;;;;;7.00;96.10;;;;;;5073572;28;19954;-69
2021/05/15 02:13:49;;;;;;;;;;;6.70;96.40;;;;;;5075208;28;19920;-69
2021/05/15 02:16:15;;;;;;;;;;;6.50;96.90;;;;;;5074869;28;20020;-69
2021/05/15 02:18:41;;;;;;;;;;;6.60;96.90;;;;;;5073567;28;19917;-68
2021/05/15 02:21:07;;;;;;;;;;;6.60;96.70;;;;;;5071127;28;19935;-69
2021/05/15 02:23:33;;;;;;;;;;;6.70;97.10;;;;;;5071949;28;20014;-69
2021/05/15 02:25:59;;;;;;;;;;;6.80;96.80;;;;;;5073732;28;19958;-70
2021/05/15 02:28:24;;;;;;;;;;;6.70;96.90;;;;;;5075098;28;20568;-69
2021/05/15 02:30:51;;;;;;;;;;;6.70;96.90;;;;;;5074571;28;19917;-69
2021/05/15 02:33:17;;;;;;;;;;;6.90;97.00;;;;;;5073782;28;19939;-69
2021/05/15 02:35:42;;;;;;;;;;;7.10;96.60;;;;;;5073949;28;19912;-69
2021/05/15 02:38:10;;;;;;;;;;;7.20;96.40;;;;;;5075221;28;20309;-69
2021/05/15 02:40:36;;;;;;;;;;;7.30;95.80;;;;;;5073883;28;19916;-69
2021/05/15 02:43:02;;;;;;;;;;;7.30;95.70;;;;;;5070315;28;19978;-69
2021/05/15 02:45:27;;;;;;;;;;;7.20;95.80;;;;;;5075000;28;20306;-68
2021/05/15 02:47:53;;;;;;;;;;;7.30;95.40;;;;;;5073462;28;19969;-69
2021/05/15 02:50:20;;;;;;;;;;;7.30;95.60;;;;;;5073580;28;19956;-69
2021/05/15 02:52:46;;;;;;;;;;;7.40;95.30;;;;;;5056917;28;19912;-71
2021/05/15 02:55:13;;;;;;;;;;;7.60;94.90;;;;;;5073951;28;19923;-69
2021/05/15 02:57:39;;;;;;;;;;;7.70;94.20;;;;;;5074146;28;19969;-70
2021/05/15 03:00:05;;;;;;;;;;;7.70;94.40;;;;;;5073759;28;20464;-69
2021/05/15 03:02:31;;;;;;;;;;;7.70;94.20;;;;;;5073508;28;19917;-70
2021/05/15 03:04:56;;;;;;;;;;;7.80;93.70;;;;;;5074157;28;20242;-69
2021/05/15 03:07:22;;;;;;;;;;;7.80;93.50;;;;;;5074163;28;19956;-69
2021/05/15 03:09:50;;;;;;;;;;;7.90;93.30;;;;;;5072930;28;20372;-69
2021/05/15 03:12:16;;;;;;;;;;;7.90;93.40;;;;;;5072710;28;19923;-69
2021/05/15 03:14:42;;;;;;;;;;;7.80;93.30;;;;;;5079237;28;19920;-69
2021/05/15 03:17:08;;;;;;;;;;;7.70;93.70;;;;;;5079170;28;19962;-69
2021/05/15 03:19:33;;;;;;;;;;;7.70;93.70;;;;;;5057131;28;19991;-69
2021/05/15 03:21:59;;;;;;;;;;;7.80;93.30;;;;;;5057817;28;20258;-70
2021/05/15 03:24:24;;;;;;;;;;;7.80;93.40;;;;;;5070706;28;19913;-70
2021/05/15 03:26:50;;;;;;;;;;;7.90;93.00;;;;;;5074740;28;19913;-69
2021/05/15 03:29:16;;;;;;;;;;;8.00;92.80;;;;;;5074804;28;20002;-70
2021/05/15 03:31:41;;;;;;;;;;;7.90;92.60;;;;;;5070549;28;19909;-69
2021/05/15 03:34:08;;;;;;;;;;;7.90;92.60;;;;;;5071394;28;19912;-69
2021/05/15 03:36:34;;;;;;;;;;;7.90;92.90;;;;;;5073740;28;19923;-69
2021/05/15 03:38:59;;;;;;;;;;;7.80;93.30;;;;;;5074690;28;19908;-69
2021/05/15 03:41:25;;;;;;;;;;;7.70;93.30;;;;;;5073871;28;19919;-69
2021/05/15 03:43:51;;;;;;;;;;;7.70;93.50;;;;;;5074340;28;19913;-70
2021/05/15 03:46:16;;;;;;;;;;;7.50;94.80;;;;;;5073449;28;20014;-70
2021/05/15 03:48:42;;;;;;;;;;;7.30;94.70;;;;;;5083756;28;20007;-69
2021/05/15 03:51:07;;;;;;;;;;;7.10;95.20;;;;;;5090954;28;20224;-70
2021/05/15 03:53:33;;;;;;;;;;;7.00;95.60;;;;;;5073432;28;19973;-70
2021/05/15 03:55:58;;;;;;;;;;;7.00;95.50;;;;;;5073730;28;19958;-69
2021/05/15 03:58:24;;;;;;;;;;;6.90;95.90;;;;;;5073680;28;19916;-69
2021/05/15 04:00:49;;;;;;;;;;;6.80;95.90;;;;;;5078779;28;19920;-70
2021/05/15 04:03:17;;;;;;;;;;;6.70;96.30;;;;;;5077380;28;19908;-69
2021/05/15 04:05:43;;;;;;;;;;;6.50;96.20;;;;;;5060058;28;20297;-70
2021/05/15 04:08:08;;;;;;;;;;;6.50;97.10;;;;;;5078256;28;19924;-69
2021/05/15 04:10:36;;;;;;;;;;;6.80;96.40;;;;;;5074338;28;19927;-69
2021/05/15 04:13:31;;;;;;;;;;;7.00;95.60;;;;;;5057416;28;19912;-69
2021/05/15 04:15:55;;;;;;;;;;;7.10;95.60;;;;;;5076457;28;19928;-69
2021/05/15 04:18:20;;;;;;;;;;;7.00;95.80;;;;;;5075750;28;20319;-69
2021/05/15 04:20:47;;;;;;;;;;;6.80;96.10;;;;;;5076715;28;20479;-70
2021/05/15 04:23:13;;;;;;;;;;;6.80;96.20;;;;;;5060416;28;19912;-70
2021/05/15 04:25:39;;;;;;;;;;;6.80;96.40;;;;;;5059914;28;19913;-70
2021/05/15 04:28:05;;;;;;;;;;;6.90;96.10;;;;;;5077484;28;19951;-70
2021/05/15 04:30:31;;;;;;;;;;;6.90;96.40;;;;;;5077329;28;19919;-70
2021/05/15 04:32:57;;;;;;;;;;;6.90;96.10;;;;;;5076817;28;19912;-70
2021/05/15 04:35:22;;;;;;;;;;;7.10;95.40;;;;;;5076958;28;19943;-69
2021/05/15 04:37:48;;;;;;;;;;;7.30;95.00;;;;;;5076091;28;19999;-69
2021/05/15 04:40:14;;;;;;;;;;;7.40;94.90;;;;;;5080635;28;19912;-70
2021/05/15 04:42:40;;;;;;;;;;;7.40;94.90;;;;;;5060883;28;19916;-69
2021/05/15 04:45:06;;;;;;;;;;;7.40;95.10;;;;;;5097456;28;19937;-69
2021/05/15 04:47:32;;;;;;;;;;;7.40;94.60;;;;;;5077557;28;19920;-70
2021/05/15 04:50:00;;;;;;;;;;;7.50;94.90;;;;;;5076960;28;19920;-70
2021/05/15 04:52:29;;;;;;;;;;;7.50;94.60;;;;;;5078478;28;19916;-69
2021/05/15 04:54:57;;;;;;;;;;;7.60;94.40;;;;;;5081093;28;20007;-70
2021/05/15 04:57:23;;;;;;;;;;;7.60;94.60;;;;;;5077518;28;19913;-69
2021/05/15 04:59:48;;;;;;;;;;;7.60;94.70;;;;;;5079099;28;19920;-69
2021/05/15 05:02:14;;;;;;;;;;;7.70;94.20;;;;;;5078258;28;20057;-69
2021/05/15 05:04:42;;;;;;;;;;;7.90;93.70;;;;;;5077473;28;19948;-69
2021/05/15 05:07:08;;;;;;;;;;;8.00;94.00;;;;;;5076703;28;19985;-69
2021/05/15 05:09:33;;;;;;;;;;;8.10;93.80;;;;;;5082472;28;20261;-68
2021/05/15 05:12:02;;;;;;;;;;;8.20;94.10;;;;;;5082624;28;20382;-68
2021/05/15 05:14:27;;;;;;;;;;;8.40;93.10;;;;;;5078624;28;19927;-68
2021/05/15 05:16:56;;;;;;;;;;;8.60;92.70;;;;;;5079424;28;20309;-69
2021/05/15 05:19:22;;;;;;;;;;;8.80;92.30;;;;;;5076215;28;19913;-71
2021/05/15 05:21:48;;;;;;;;;;;9.10;90.70;;;;;;5080622;28;20286;-70
2021/05/15 05:24:14;;;;;;;;;;;9.20;89.20;;;;;;5079931;28;19928;-69
2021/05/15 05:26:39;;;;;;;;;;;9.30;88.80;;;;;;5068309;28;19999;-70
2021/05/15 05:29:09;;;;;;;;;;;9.20;88.90;;;;;;5076288;28;19917;-71
2021/05/15 05:31:44;;;;;;;;;;;9.20;88.90;;;;;;5078997;28;19999;-70
2021/05/15 05:34:10;;;;;;;;;;;9.10;88.30;;;;;;5083938;28;20011;-71
2021/05/15 05:36:36;;;;;;;;;;;9.10;89.00;;;;;;5076760;28;19924;-69
2021/05/15 05:39:13;;;;;;;;;;;9.10;88.50;;;;;;5079879;28;19913;-69
2021/05/15 05:41:38;;;;;;;;;;;9.00;89.20;;;;;;5079476;28;19920;-69
2021/05/15 05:44:05;;;;;;;;;;;9.00;88.60;;;;;;5072965;28;19913;-69
2021/05/15 05:46:30;;;;;;;;;;;9.10;88.90;;;;;;5058018;28;19920;-68
2021/05/15 05:48:56;;;;;;;;;;;9.20;88.50;;;;;;5072681;28;19916;-69
2021/05/15 05:51:24;;;;;;;;;;;9.50;88.20;;;;;;5080433;28;19912;-69
2021/05/15 05:53:50;;;;;;;;;;;9.90;87.50;;;;;;5073875;28;19920;-69
2021/05/15 05:56:21;;;;;;;;;;;10.20;87.00;;;;;;5069762;28;21193;-69
2021/05/15 05:58:47;;;;;;;;;;;10.60;86.10;;;;;;5075734;28;20355;-70
2021/05/15 06:01:13;;;;;;;;;;;11.00;83.50;;;;;;5073585;28;19912;-69
2021/05/15 06:03:39;;;;;;;;;;;11.30;83.10;;;;;;5071658;28;19981;-69
2021/05/15 06:06:05;;;;;;;;;;;11.50;81.90;;;;;;5071763;28;20494;-70
2021/05/15 06:08:30;;;;;;;;;;;11.60;81.80;;;;;;5077363;28;19925;-70
2021/05/15 06:10:56;;;;;;;;;;;11.20;81.60;;;;;;5076266;28;19913;-69
2021/05/15 06:13:22;;;;;;;;;;;11.20;82.20;;;;;;5080098;28;19920;-69
2021/05/15 06:15:47;;;;;;;;;;;10.70;83.10;;;;;;5068886;28;19921;-69
2021/05/15 06:18:13;;;;;;;;;;;10.60;83.60;;;;;;5070615;28;19912;-70
2021/05/15 06:20:39;;;;;;;;;;;10.80;84.40;;;;;;5076140;28;19916;-70
2021/05/15 06:23:05;;;;;;;;;;;11.10;83.30;;;;;;5069529;28;19916;-71
2021/05/15 06:25:30;;;;;;;;;;;11.30;83.20;;;;;;5076227;28;19920;-70
2021/05/15 06:27:56;;;;;;;;;;;11.50;82.90;;;;;;5075676;28;19913;-70
2021/05/15 06:30:21;;;;;;;;;;;11.80;83.10;;;;;;5078551;28;19921;-70
2021/05/15 06:32:47;;;;;;;;;;;11.80;81.80;;;;;;5071351;28;20194;-69
2021/05/15 06:35:13;;;;;;;;;;;11.80;82.30;;;;;;5074665;28;19933;-70
2021/05/15 06:37:38;;;;;;;;;;;12.00;82.20;;;;;;5075677;28;19970;-69
2021/05/15 06:40:05;;;;;;;;;;;12.00;81.30;;;;;;5077140;28;19919;-70
2021/05/15 06:42:30;;;;;;;;;;;11.80;82.30;;;;;;5078655;28;19912;-69
2021/05/15 06:44:56;;;;;;;;;;;12.10;80.90;;;;;;5069788;28;19920;-69
2021/05/15 06:47:21;;;;;;;;;;;12.30;80.70;;;;;;5074028;28;19927;-70
2021/05/15 06:49:49;;;;;;;;;;;12.20;80.30;;;;;;5078164;28;19912;-69
2021/05/15 06:52:14;;;;;;;;;;;12.30;80.40;;;;;;5074775;28;20332;-70
2021/05/15 06:54:40;;;;;;;;;;;12.30;80.80;;;;;;5076540;28;19920;-70
2021/05/15 06:57:06;;;;;;;;;;;12.10;81.50;;;;;;5075838;28;19948;-69
2021/05/15 06:59:32;;;;;;;;;;;12.20;81.30;;;;;;5059140;28;20007;-69
2021/05/15 07:01:58;;;;;;;;;;;12.30;81.20;;;;;;5074152;28;20011;-69
2021/05/15 07:04:24;;;;;;;;;;;12.30;80.70;;;;;;5075699;28;19913;-70
2021/05/15 07:06:49;;;;;;;;;;;11.90;81.30;;;;;;5074825;28;20660;-70
2021/05/15 07:09:15;;;;;;;;;;;11.90;81.60;;;;;;5079195;28;19943;-70
2021/05/15 07:11:40;;;;;;;;;;;12.10;81.70;;;;;;5074273;28;19916;-70
2021/05/15 07:14:06;;;;;;;;;;;12.10;80.00;;;;;;5078478;28;20392;-70
2021/05/15 07:16:31;;;;;;;;;;;11.90;81.60;;;;;;5093448;28;20221;-70
2021/05/15 07:18:57;;;;;;;;;;;12.00;82.80;;;;;;5092159;28;19920;-70
2021/05/15 07:21:22;;;;;;;;;;;12.20;81.80;;;;;;5094283;28;19919;-70
2021/05/15 07:23:48;;;;;;;;;;;12.00;81.70;;;;;;5095018;28;19908;-70
2021/05/15 07:26:13;;;;;;;;;;;12.40;81.30;;;;;;5093816;28;19919;-69
2021/05/15 07:28:39;;;;;;;;;;;12.60;79.80;;;;;;5093801;28;20339;-70
2021/05/15 07:31:05;;;;;;;;;;;12.80;80.50;;;;;;5076148;28;20007;-70
2021/05/15 07:33:34;;;;;;;;;;;13.40;78.30;;;;;;5093011;28;19920;-70
2021/05/15 07:36:00;;;;;;;;;;;13.50;77.90;;;;;;5093126;28;19920;-70
2021/05/15 07:38:28;;;;;;;;;;;13.80;78.00;;;;;;5094461;28;19919;-69
2021/05/15 07:40:54;;;;;;;;;;;13.30;78.10;;;;;;5093347;28;19965;-70
2021/05/15 07:43:23;;;;;;;;;;;13.20;79.30;;;;;;5094530;28;19916;-70
2021/05/15 07:45:50;;;;;;;;;;;13.10;79.00;;;;;;5093056;28;20006;-69
2021/05/15 07:48:15;;;;;;;;;;;12.90;79.60;;;;;;5092553;28;20220;-70
2021/05/15 07:50:41;;;;;;;;;;;13.20;80.20;;;;;;5094281;28;19916;-69
2021/05/15 07:53:06;;;;;;;;;;;13.10;78.10;;;;;;5094547;28;19912;-69
2021/05/15 07:55:32;;;;;;;;;;;13.30;78.30;;;;;;5094442;28;19974;-69
2021/05/15 07:57:57;;;;;;;;;;;13.40;76.20;;;;;;5094416;28;20316;-69
2021/05/15 08:00:23;;;;;;;;;;;13.40;77.20;;;;;;5086606;28;19919;-69
2021/05/15 08:02:48;;;;;;;;;;;13.70;75.80;;;;;;5096260;28;19919;-69
2021/05/15 08:05:14;;;;;;;;;;;13.70;75.40;;;;;;5095226;28;20220;-69
2021/05/15 08:07:40;;;;;;;;;;;13.10;77.40;;;;;;5094063;28;19923;-68
2021/05/15 08:10:07;;;;;;;;;;;12.60;78.20;;;;;;5095674;28;19912;-69
2021/05/15 08:12:33;;;;;;;;;;;12.70;78.80;;;;;;5096779;28;20286;-68
2021/05/15 08:14:59;;;;;;;;;;;12.90;79.00;;;;;;5078526;28;19955;-72
2021/05/15 08:17:25;;;;;;;;;;;12.80;77.90;;;;;;5091330;28;19912;-70
2021/05/15 08:19:50;;;;;;;;;;;13.20;77.00;;;;;;5094822;28;19946;-72
2021/05/15 08:22:16;;;;;;;;;;;13.10;76.30;;;;;;5095520;28;20308;-69
2021/05/15 08:24:41;;;;;;;;;;;12.80;76.90;;;;;;5094132;28;20213;-69
2021/05/15 08:27:07;;;;;;;;;;;13.20;76.80;;;;;;5094303;28;19913;-69
2021/05/15 08:29:33;;;;;;;;;;;13.40;76.10;;;;;;5106384;28;19923;-69
2021/05/15 08:31:59;;;;;;;;;;;13.90;75.00;;;;;;5092991;28;19912;-69
2021/05/15 08:34:25;;;;;;;;;;;14.30;74.30;;;;;;5094824;28;20331;-69
2021/05/15 08:36:50;;;;;;;;;;;14.80;72.60;;;;;;5094216;28;19916;-70
2021/05/15 08:39:16;;;;;;;;;;;14.70;72.60;;;;;;5076948;28;19928;-69
2021/05/15 08:41:42;;;;;;;;;;;14.50;72.50;;;;;;5093993;28;19919;-69
2021/05/15 08:44:10;;;;;;;;;;;14.40;73.50;;;;;;5092557;28;19912;-68
2021/05/15 08:46:44;;;;;;;;;;;14.80;73.60;;;;;;5074745;28;20013;-69
2021/05/15 08:49:11;;;;;;;;;;;14.60;73.60;;;;;;5096662;28;20194;-69
2021/05/15 08:51:36;;;;;;;;;;;14.80;74.00;;;;;;5098802;28;19912;-69
2021/05/15 08:54:02;;;;;;;;;;;14.40;71.50;;;;;;5098616;28;19973;-69
2021/05/15 08:56:28;;;;;;;;;;;13.20;75.30;;;;;;5097271;28;20313;-70
2021/05/15 08:58:54;;;;;;;;;;;13.10;76.50;;;;;;5098679;28;19912;-70
2021/05/15 09:01:20;;;;;;;;;;;13.40;76.50;;;;;;5080158;28;19912;-70
2021/05/15 09:03:45;;;;;;;;;;;13.50;76.20;;;;;;5096613;28;19919;-70
2021/05/15 09:06:11;;;;;;;;;;;13.60;76.10;;;;;;5097258;28;19912;-70
2021/05/15 09:08:37;;;;;;;;;;;14.10;75.20;;;;;;5079347;28;20236;-69
2021/05/15 09:11:03;;;;;;;;;;;14.90;73.90;;;;;;5097805;28;19919;-69
2021/05/15 09:13:29;;;;;;;;;;;14.90;71.60;;;;;;5098483;28;19912;-69
2021/05/15 09:15:57;;;;;;;;;;;15.30;70.10;;;;;;5084378;28;19972;-69
2021/05/15 09:18:32;;;;;;;;;;;15.70;69.00;;;;;;5075441;28;19981;-70
2021/05/15 09:20:59;;;;;;;;;;;15.50;69.30;;;;;;5089642;28;19912;-69
2021/05/15 09:23:25;;;;;;;;;;;16.70;68.50;;;;;;5079252;28;20222;-70
2021/05/15 09:25:59;;;;;;;;;;;17.20;66.50;;;;;;5071283;28;19942;-70
2021/05/15 09:28:35;;;;;;;;;;;16.90;66.10;;;;;;5077533;28;19923;-70
2021/05/15 09:31:14;;;;;;;;;;;16.50;66.90;;;;;;5077990;28;19920;-70
2021/05/15 09:33:42;;;;;;;;;;;16.90;67.20;;;;;;5089969;28;19920;-70
2021/05/15 09:36:11;;;;;;;;;;;17.20;65.50;;;;;;5089879;28;20339;-69
2021/05/15 09:38:37;;;;;;;;;;;17.20;64.90;;;;;;5063905;28;19924;-70
2021/05/15 09:41:03;;;;;;;;;;;17.40;64.90;;;;;;5077349;28;19912;-69
2021/05/15 09:43:34;;;;;;;;;;;17.20;65.00;;;;;;5082696;28;19921;-70
2021/05/15 09:46:00;;;;;;;;;;;16.20;67.50;;;;;;5089088;28;19959;-70
2021/05/15 09:48:35;;;;;;;;;;;15.70;69.50;;;;;;5087051;28;19959;-70
2021/05/15 09:51:11;;;;;;;;;;;15.50;69.80;;;;;;5075576;28;20369;-70
2021/05/15 09:53:36;;;;;;;;;;;15.30;69.60;;;;;;5078804;28;19916;-70
2021/05/15 09:56:02;;;;;;;;;;;15.40;71.30;;;;;;5085882;28;20211;-70
2021/05/15 09:58:27;;;;;;;;;;;15.60;70.20;;;;;;5087615;28;19912;-70
2021/05/15 10:00:54;;;;;;;;;;;16.40;69.50;;;;;;5083043;28;19916;-69
2021/05/15 10:03:24;;;;;;;;;;;16.10;69.10;;;;;;5081724;28;19916;-69
2021/05/15 10:05:58;;;;;;;;;;;16.20;69.80;;;;;;5080203;28;19915;-70
2021/05/15 10:08:24;;;;;;;;;;;15.80;68.50;;;;;;5076913;28;20309;-69
2021/05/15 10:10:51;;;;;;;;;;;15.50;71.00;;;;;;5088788;28;19916;-70
2021/05/15 10:13:16;;;;;;;;;;;16.20;69.00;;;;;;5086577;28;19912;-69
2021/05/15 10:15:42;;;;;;;;;;;15.70;68.00;;;;;;5076575;28;19920;-69
2021/05/15 10:18:08;;;;;;;;;;;15.40;67.80;;;;;;5075036;28;20304;-69
2021/05/15 10:20:34;;;;;;;;;;;14.80;69.80;;;;;;5077117;28;19913;-69
2021/05/15 10:22:59;;;;;;;;;;;15.30;70.30;;;;;;5077008;28;19913;-69
2021/05/15 10:25:28;;;;;;;;;;;15.70;69.40;;;;;;5056493;28;19920;-70
2021/05/15 10:28:01;;;;;;;;;;;15.80;69.60;;;;;;5075802;28;19917;-70
2021/05/15 10:30:27;;;;;;;;;;;16.20;68.10;;;;;;5076885;28;19920;-69
2021/05/15 10:32:53;;;;;;;;;;;16.30;66.30;;;;;;5075352;28;19912;-70
2021/05/15 10:35:33;;;;;;;;;;;16.00;67.60;;;;;;5076634;28;19995;-70
2021/05/15 10:38:05;;;;;;;;;;;15.90;68.20;;;;;;5075672;28;20003;-70
2021/05/15 10:40:41;;;;;;;;;;;15.90;68.40;;;;;;5070470;28;19960;-70
2021/05/15 10:43:07;;;;;;;;;;;15.70;69.40;;;;;;5076357;28;20007;-70
2021/05/15 10:45:33;;;;;;;;;;;15.70;69.70;;;;;;5076352;28;19955;-70
2021/05/15 10:48:10;;;;;;;;;;;15.60;69.00;;;;;;5075095;28;20288;-70
2021/05/15 10:50:47;;;;;;;;;;;15.20;70.10;;;;;;5057509;28;19962;-70
2021/05/15 10:53:17;;;;;;;;;;;13.90;73.80;;;;;;5075354;28;19948;-69
2021/05/15 10:55:42;;;;;;;;;;;12.60;79.00;;;;;;5076040;28;19936;-69
2021/05/15 10:58:12;;;;;;;;;;;11.60;87.00;;;;;;5076320;28;20260;-69
2021/05/15 11:00:38;;;;;;;;;;;11.30;87.70;;;;;;5075350;28;19916;-69
2021/05/15 11:03:04;;;;;;;;;;;11.20;87.70;;;;;;5074576;28;19912;-70
2021/05/15 11:05:40;;;;;;;;;;;11.40;87.00;;;;;;5075804;28;20580;-70
2021/05/15 11:08:05;;;;;;;;;;;11.60;84.50;;;;;;5076328;28;20316;-70
2021/05/15 11:10:34;;;;;;;;;;;12.40;82.40;;;;;;5075070;28;19912;-70
2021/05/15 11:13:05;;;;;;;;;;;13.30;82.20;;;;;;5075101;28;19958;-70
2021/05/15 11:15:31;;;;;;;;;;;14.00;79.40;;;;;;5080071;28;19925;-70
2021/05/15 11:18:00;;;;;;;;;;;14.70;75.70;;;;;;5074972;28;20209;-70
2021/05/15 11:20:26;;;;;;;;;;;15.90;74.80;;;;;;5075330;28;19913;-71
2021/05/15 11:22:52;;;;;;;;;;;16.30;73.50;;;;;;5075750;28;19918;-69
2021/05/15 11:25:29;;;;;;;;;;;17.10;69.20;;;;;;5058132;28;19912;-69
2021/05/15 11:27:56;;;;;;;;;;;17.00;69.00;;;;;;5075336;28;19920;-69
2021/05/15 11:30:25;;;;;;;;;;;16.90;69.70;;;;;;5075262;28;19912;-70
2021/05/15 11:33:00;;;;;;;;;;;16.40;68.60;;;;;;5074748;28;19935;-70
2021/05/15 11:35:26;;;;;;;;;;;15.80;70.60;;;;;;5075540;28;19913;-69
2021/05/15 11:38:21;;;;;;;;;;;15.20;72.90;;;;;;5075198;28;20330;-69
2021/05/15 11:40:47;;;;;;;;;;;14.70;74.30;;;;;;5062299;28;19981;-70
2021/05/15 11:43:19;;;;;;;;;;;14.50;75.30;;;;;;5076041;28;19943;-69
2021/05/15 11:45:44;;;;;;;;;;;14.30;74.90;;;;;;5075717;28;19920;-70
2021/05/15 11:48:19;;;;;;;;;;;13.70;75.50;;;;;;5073574;28;19920;-69
2021/05/15 11:50:56;;;;;;;;;;;13.60;77.40;;;;;;5075331;28;19913;-69
2021/05/15 11:53:24;;;;;;;;;;;13.40;76.00;;;;;;5075105;28;19921;-70
2021/05/15 11:55:51;;;;;;;;;;;13.20;77.20;;;;;;5068009;28;20120;-69
2021/05/15 11:58:17;;;;;;;;;;;13.50;77.60;;;;;;5074778;28;19920;-69
2021/05/15 12:00:43;;;;;;;;;;;13.60;76.80;;;;;;5070558;28;19912;-70
2021/05/15 12:03:12;;;;;;;;;;;13.90;75.10;;;;;;5056095;28;19912;-70
2021/05/15 12:05:38;;;;;;;;;;;14.30;74.70;;;;;;5075706;28;19908;-70
2021/05/15 12:08:12;;;;;;;;;;;14.50;75.30;;;;;;5074525;28;20288;-70
2021/05/15 12:10:39;;;;;;;;;;;14.60;74.70;;;;;;5075121;28;19916;-70
2021/05/15 12:13:04;;;;;;;;;;;14.50;75.70;;;;;;5074775;28;20259;-71
2021/05/15 12:15:30;;;;;;;;;;;14.80;74.10;;;;;;5074419;28;19928;-69
2021/05/15 12:18:01;;;;;;;;;;;15.10;74.80;;;;;;5072868;28;19913;-70
2021/05/15 12:20:27;;;;;;;;;;;15.30;73.50;;;;;;5074739;28;20300;-69
2021/05/15 12:23:03;;;;;;;;;;;15.60;71.50;;;;;;5078131;28;19912;-69
2021/05/15 12:25:28;;;;;;;;;;;16.40;70.50;;;;;;5078459;28;19920;-68
2021/05/15 12:27:54;;;;;;;;;;;17.30;68.20;;;;;;5077939;28;19916;-69
2021/05/15 12:30:21;;;;;;;;;;;18.30;67.80;;;;;;5079130;28;19913;-68
2021/05/15 12:32:47;;;;;;;;;;;19.20;65.60;;;;;;5059727;28;19912;-68
2021/05/15 12:35:13;;;;;;;;;;;20.20;64.60;;;;;;5078571;28;20293;-68
2021/05/15 12:37:41;;;;;;;;;;;20.50;61.90;;;;;;5075352;28;20259;-70
2021/05/15 12:40:08;;;;;;;;;;;19.80;62.10;;;;;;5079318;28;19909;-70
2021/05/15 12:42:34;;;;;;;;;;;18.00;63.60;;;;;;5078551;28;20316;-70
2021/05/15 12:45:10;;;;;;;;;;;16.70;66.80;;;;;;5075164;28;19919;-70
2021/05/15 12:47:36;;;;;;;;;;;16.80;64.30;;;;;;5076583;28;20301;-69
2021/05/15 12:50:02;;;;;;;;;;;17.20;64.50;;;;;;5078787;28;19916;-69
2021/05/15 12:52:35;;;;;;;;;;;17.70;65.50;;;;;;5078976;28;19947;-69
2021/05/15 12:55:05;;;;;;;;;;;17.40;62.20;;;;;;5078714;28;19960;-70
2021/05/15 12:57:31;;;;;;;;;;;17.10;61.50;;;;;;5061170;28;19919;-69
2021/05/15 12:59:56;;;;;;;;;;;16.50;62.50;;;;;;5078692;28;20002;-69
2021/05/15 13:02:23;;;;;;;;;;;16.40;64.20;;;;;;5077064;28;20374;-70
2021/05/15 13:05:01;;;;;;;;;;;16.30;65.90;;;;;;5078714;28;19916;-70
2021/05/15 13:07:32;;;;;;;;;;;16.50;63.50;;;;;;5074713;28;19966;-70
2021/05/15 13:09:59;;;;;;;;;;;16.60;64.00;;;;;;5077885;28;19936;-70
2021/05/15 13:12:24;;;;;;;;;;;16.70;63.70;;;;;;5060856;28;19909;-70
2021/05/15 13:14:50;;;;;;;;;;;16.30;62.90;;;;;;5083315;28;20374;-70
2021/05/15 13:17:15;;;;;;;;;;;15.90;63.80;;;;;;5096946;28;20009;-69
2021/05/15 13:19:41;;;;;;;;;;;15.60;63.60;;;;;;5098487;28;20331;-70
2021/05/15 13:22:07;;;;;;;;;;;15.20;65.00;;;;;;5098331;28;20003;-69
2021/05/15 13:24:33;;;;;;;;;;;15.00;66.70;;;;;;5097966;28;20332;-70
2021/05/15 13:26:58;;;;;;;;;;;14.80;66.70;;;;;;5080202;28;20369;-70
2021/05/15 13:29:24;;;;;;;;;;;14.60;66.60;;;;;;5098123;28;19916;-70
2021/05/15 13:31:53;;;;;;;;;;;14.60;67.00;;;;;;5097479;28;20394;-70
2021/05/15 13:34:19;;;;;;;;;;;15.00;67.30;;;;;;5097452;28;19908;-70
2021/05/15 13:36:44;;;;;;;;;;;15.70;65.30;;;;;;5097515;28;20293;-70
2021/05/15 13:39:10;;;;;;;;;;;16.00;64.80;;;;;;5097752;28;19977;-69
2021/05/15 13:41:36;;;;;;;;;;;15.90;65.60;;;;;;5096904;28;19999;-69
2021/05/15 13:44:02;;;;;;;;;;;16.00;66.40;;;;;;5097851;28;19920;-70
2021/05/15 13:46:29;;;;;;;;;;;16.10;64.40;;;;;;5095532;28;20304;-69
2021/05/15 13:48:55;;;;;;;;;;;16.00;64.60;;;;;;5093653;28;19916;-69
2021/05/15 13:51:20;;;;;;;;;;;15.60;63.90;;;;;;5093522;28;20006;-69
2021/05/15 13:53:46;;;;;;;;;;;15.20;65.40;;;;;;5076722;28;20524;-69
2021/05/15 13:56:12;;;;;;;;;;;14.90;67.60;;;;;;5094050;28;19920;-69
2021/05/15 13:58:41;;;;;;;;;;;14.90;67.40;;;;;;5094643;28;19961;-69
2021/05/15 14:01:07;;;;;;;;;;;14.80;67.30;;;;;;5092930;28;19919;-69
2021/05/15 14:03:33;;;;;;;;;;;14.70;67.90;;;;;;5089421;28;20356;-69
2021/05/15 14:05:59;;;;;;;;;;;14.50;68.50;;;;;;5093836;28;19961;-69
2021/05/15 14:08:24;;;;;;;;;;;14.30;69.00;;;;;;5094094;28;19977;-70
2021/05/15 14:10:51;;;;;;;;;;;14.30;69.40;;;;;;5093952;28;20499;-70
2021/05/15 14:13:17;;;;;;;;;;;14.30;68.80;;;;;;5093283;28;19923;-70
2021/05/15 14:15:43;;;;;;;;;;;14.20;70.20;;;;;;5076699;28;20008;-69
2021/05/15 14:18:08;;;;;;;;;;;14.10;70.30;;;;;;5072236;28;19912;-70
2021/05/15 14:20:35;;;;;;;;;;;14.20;70.30;;;;;;5073551;28;20232;-69